createdAt,value
2019-03-06T00:00:24.508Z,16.12
2019-03-06T00:02:44.814Z,14.83
2019-03-06T00:05:12.852Z,15.23
2019-03-06T00:07:40.735Z,14.68
2019-03-06T00:10:21.199Z,14.03
2019-03-06T00:12:49.148Z,16.80
2019-03-06T00:15:17.050Z,16.75
2019-03-06T00:17:45.313Z,15.88
2019-03-06T00:20:15.537Z,14.80
2019-03-06T00:22:43.452Z,16.45
2019-03-06T00:25:31.781Z,14.30
2019-03-06T00:27:59.664Z,16.00
2019-03-06T00:30:29.296Z,14.00
2019-03-06T00:32:57.174Z,16.15
2019-03-06T00:38:06.686Z,14.35
2019-03-06T00:40:53.743Z,15.05
2019-03-06T00:43:21.682Z,14.60
2019-03-06T00:45:49.635Z,13.60
2019-03-06T00:48:17.607Z,13.43
2019-03-06T00:50:45.927Z,15.05
2019-03-06T00:53:13.841Z,16.85
2019-03-06T00:55:41.769Z,15.80
2019-03-06T00:58:09.607Z,16.07
2019-03-06T01:00:37.500Z,16.20
2019-03-06T01:06:12.898Z,14.03
2019-03-06T01:08:40.785Z,14.75
2019-03-06T01:11:08.712Z,14.10
2019-03-06T01:16:46.046Z,14.73
2019-03-06T01:19:13.897Z,13.50
2019-03-06T01:21:41.833Z,14.07
2019-03-06T01:24:09.722Z,15.03
2019-03-06T01:26:37.570Z,14.60
2019-03-06T01:29:05.677Z,14.38
2019-03-06T01:31:33.536Z,16.20
2019-03-06T01:34:20.439Z,14.15
2019-03-06T01:40:18.997Z,13.95
2019-03-06T01:43:06.406Z,15.80
2019-03-06T01:45:34.255Z,15.78
2019-03-06T01:48:02.140Z,14.50
2019-03-06T01:50:30.188Z,19.23
2019-03-06T01:52:58.081Z,15.48
2019-03-06T01:55:25.944Z,14.30
2019-03-06T01:57:54.136Z,16.77
2019-03-06T02:00:22.089Z,15.65
2019-03-06T02:02:49.938Z,16.82
2019-03-06T02:05:17.805Z,16.52
2019-03-06T02:07:45.717Z,14.85
2019-03-06T02:10:13.671Z,18.62
2019-03-06T02:12:41.514Z,14.68
2019-03-06T02:15:11.850Z,14.70
2019-03-06T02:17:39.737Z,15.05
2019-03-06T02:20:09.020Z,15.40
2019-03-06T02:22:36.874Z,17.20
2019-03-06T02:25:04.970Z,19.67
2019-03-06T02:27:32.859Z,15.80
2019-03-06T02:30:00.898Z,15.90
2019-03-06T02:32:28.793Z,18.30
2019-03-06T02:34:56.670Z,16.90
2019-03-06T02:37:24.586Z,16.20
2019-03-06T02:39:52.526Z,16.60
2019-03-06T02:42:20.405Z,17.07
2019-03-06T02:44:48.279Z,16.45
2019-03-06T02:47:16.181Z,18.35
2019-03-06T02:49:44.046Z,16.73
2019-03-06T02:52:14.227Z,17.32
2019-03-06T02:54:42.127Z,18.50
2019-03-06T02:57:11.776Z,16.12
2019-03-06T02:59:58.821Z,15.53
2019-03-06T03:02:45.693Z,16.65
2019-03-06T03:05:32.612Z,16.00
2019-03-06T03:08:00.493Z,18.73
2019-03-06T03:10:28.393Z,17.98
2019-03-06T03:13:03.742Z,17.07
2019-03-06T03:15:31.653Z,18.07
2019-03-06T03:17:59.494Z,18.25
2019-03-06T03:20:27.430Z,18.70
2019-03-06T03:22:55.376Z,18.23
2019-03-06T03:25:23.292Z,19.55
2019-03-06T03:28:10.322Z,18.75
2019-03-06T03:30:38.250Z,18.40
2019-03-06T03:33:06.174Z,17.35
2019-03-06T03:35:34.044Z,20.37
2019-03-06T03:38:01.907Z,20.75
2019-03-06T03:40:29.785Z,18.90
2019-03-06T03:42:59.770Z,19.27
2019-03-06T03:45:27.672Z,19.60
2019-03-06T03:47:55.506Z,20.55
2019-03-06T03:50:25.086Z,19.92
2019-03-06T03:52:53.036Z,19.45
2019-03-06T03:55:20.910Z,19.35
2019-03-06T04:00:35.911Z,20.65
2019-03-06T04:03:03.822Z,22.20
2019-03-06T04:05:31.686Z,22.77
2019-03-06T04:07:59.795Z,21.07
2019-03-06T04:10:27.668Z,19.80
2019-03-06T04:12:55.533Z,20.30
2019-03-06T04:15:23.550Z,19.92
2019-03-06T04:17:51.474Z,22.35
2019-03-06T04:20:19.321Z,21.35
2019-03-06T04:22:47.203Z,20.95
2019-03-06T04:25:15.112Z,21.42
2019-03-06T04:27:42.991Z,20.82
2019-03-06T04:30:11.333Z,24.72
2019-03-06T04:32:39.213Z,20.88
2019-03-06T04:35:07.108Z,21.57
2019-03-06T04:37:35.076Z,21.17
2019-03-06T04:40:03.119Z,20.20
2019-03-06T04:42:50.357Z,21.70
2019-03-06T04:45:18.223Z,22.07
2019-03-06T04:47:46.114Z,20.90
2019-03-06T04:50:14.033Z,21.70
2019-03-06T04:52:43.749Z,22.90
2019-03-06T04:55:11.813Z,20.23
2019-03-06T04:57:39.643Z,20.80
2019-03-06T05:00:08.562Z,23.47
2019-03-06T05:02:36.394Z,22.40
2019-03-06T05:05:04.442Z,24.25
2019-03-06T05:07:32.329Z,23.75
2019-03-06T05:10:00.304Z,23.25
2019-03-06T05:12:28.162Z,22.10
2019-03-06T05:14:58.438Z,20.08
2019-03-06T05:17:45.321Z,22.73
2019-03-06T05:20:13.221Z,23.62
2019-03-06T05:22:41.105Z,20.43
2019-03-06T05:25:09.397Z,18.90
2019-03-06T05:27:37.314Z,21.20
2019-03-06T05:30:05.446Z,20.50
2019-03-06T05:32:34.130Z,21.30
2019-03-06T05:35:03.563Z,22.48
2019-03-06T05:37:50.744Z,18.77
2019-03-06T05:40:20.935Z,19.57
2019-03-06T05:43:07.904Z,21.52
2019-03-06T05:45:35.814Z,19.73
2019-03-06T05:48:03.952Z,22.85
2019-03-06T05:50:34.133Z,20.75
2019-03-06T05:53:02.018Z,24.37
2019-03-06T05:55:29.961Z,22.60
2019-03-06T05:57:57.869Z,23.02
2019-03-06T06:00:27.975Z,20.88
2019-03-06T06:02:55.874Z,19.05
2019-03-06T06:05:23.786Z,19.05
2019-03-06T06:07:51.692Z,20.60
2019-03-06T06:10:19.595Z,21.55
2019-03-06T06:12:47.774Z,18.65
2019-03-06T06:18:02.732Z,20.80
2019-03-06T06:20:30.610Z,20.57
2019-03-06T06:25:38.379Z,22.65
2019-03-06T06:28:06.292Z,18.90
2019-03-06T06:30:34.270Z,21.23
2019-03-06T06:33:02.168Z,18.98
2019-03-06T06:35:30.009Z,22.27
2019-03-06T06:37:57.895Z,20.15
2019-03-06T06:40:25.757Z,20.40
2019-03-06T06:42:53.634Z,22.02
2019-03-06T06:45:21.529Z,20.50
2019-03-06T06:48:10.178Z,22.40
2019-03-06T06:50:38.870Z,21.23
2019-03-06T06:53:25.914Z,19.55
2019-03-06T06:56:12.888Z,19.90
2019-03-06T06:58:59.810Z,18.85
2019-03-06T07:02:05.732Z,20.57
2019-03-06T07:05:11.799Z,20.17
2019-03-06T07:07:58.749Z,19.80
2019-03-06T07:10:45.670Z,18.05
2019-03-06T07:13:18.943Z,17.30
2019-03-06T07:16:12.599Z,19.48
2019-03-06T07:18:59.519Z,17.20
2019-03-06T07:21:46.365Z,18.92
2019-03-06T07:24:33.221Z,18.98
2019-03-06T07:27:20.603Z,20.35
2019-03-06T07:30:07.521Z,19.60
2019-03-06T07:32:43.418Z,19.98
2019-03-06T07:35:49.328Z,18.05
2019-03-06T07:38:17.190Z,19.20
2019-03-06T07:43:40.297Z,20.80
2019-03-06T07:46:27.195Z,20.95
2019-03-06T07:49:14.051Z,20.72
2019-03-06T07:52:00.898Z,21.17
2019-03-06T07:54:47.738Z,20.85
2019-03-06T07:57:34.572Z,23.25
2019-03-06T08:00:02.544Z,22.58
2019-03-06T08:02:36.677Z,21.30
2019-03-06T08:05:04.732Z,21.25
2019-03-06T08:07:32.637Z,20.10
2019-03-06T08:10:00.621Z,18.45
2019-03-06T08:12:34.529Z,21.80
2019-03-06T08:18:25.169Z,17.95
2019-03-06T08:21:04.303Z,18.55
2019-03-06T08:23:38.837Z,22.77
2019-03-06T08:26:06.798Z,19.57
2019-03-06T08:28:34.625Z,17.98
2019-03-06T08:31:21.545Z,16.82
2019-03-06T08:33:49.421Z,21.95
2019-03-06T08:36:17.258Z,17.62
2019-03-06T08:38:45.110Z,18.65
2019-03-06T08:41:12.949Z,20.15
2019-03-06T08:43:40.766Z,18.95
2019-03-06T08:46:27.619Z,17.10
2019-03-06T08:49:14.469Z,20.65
2019-03-06T08:52:01.368Z,17.35
2019-03-06T08:54:48.275Z,20.90
2019-03-06T08:57:35.214Z,19.48
2019-03-06T09:00:23.837Z,17.45
2019-03-06T09:03:17.423Z,17.52
2019-03-06T09:06:04.258Z,18.77
2019-03-06T09:08:51.224Z,16.90
2019-03-06T09:11:39.469Z,16.57
2019-03-06T09:14:26.710Z,16.60
2019-03-06T09:17:01.105Z,16.40
2019-03-06T09:19:48.010Z,16.12
2019-03-06T09:22:25.985Z,17.20
2019-03-06T09:25:02.498Z,15.90
2019-03-06T09:27:49.379Z,15.45
2019-03-06T09:30:36.243Z,15.03
2019-03-06T09:33:09.938Z,15.88
2019-03-06T09:35:56.783Z,18.45
2019-03-06T09:38:43.656Z,16.17
2019-03-06T09:41:30.573Z,16.35
2019-03-06T09:44:17.418Z,16.67
2019-03-06T09:47:04.362Z,18.65
2019-03-06T09:49:51.239Z,17.48
2019-03-06T09:52:38.196Z,15.53
2019-03-06T09:55:25.687Z,18.52
2019-03-06T09:58:12.862Z,16.82
2019-03-06T10:00:59.750Z,17.92
2019-03-06T10:03:46.621Z,18.73
2019-03-06T10:06:33.571Z,17.90
2019-03-06T10:09:20.459Z,16.82
2019-03-06T10:12:07.345Z,16.65
2019-03-06T10:14:54.236Z,16.73
2019-03-06T10:17:41.139Z,17.45
2019-03-06T10:20:12.580Z,16.67
2019-03-06T10:22:41.083Z,19.42
2019-03-06T10:25:09.037Z,17.67
2019-03-06T10:27:37.018Z,17.82
2019-03-06T10:32:59.866Z,17.40
2019-03-06T10:35:27.816Z,16.95
2019-03-06T10:37:57.491Z,17.02
2019-03-06T10:40:25.490Z,20.43
2019-03-06T10:42:57.345Z,15.43
2019-03-06T10:45:25.525Z,16.12
2019-03-06T10:48:05.695Z,16.65
2019-03-06T10:50:26.802Z,21.52
2019-03-06T10:53:12.429Z,18.73
2019-03-06T10:55:40.567Z,16.27
2019-03-06T10:58:08.706Z,16.25
2019-03-06T11:03:46.338Z,15.65
2019-03-06T11:06:14.525Z,19.27
2019-03-06T11:11:18.285Z,16.80
2019-03-06T11:13:46.255Z,15.40
2019-03-06T11:16:17.945Z,16.40
2019-03-06T11:18:45.687Z,15.38
2019-03-06T11:21:13.501Z,17.95
2019-03-06T11:23:41.406Z,15.90
2019-03-06T11:26:09.284Z,15.53
2019-03-06T11:28:39.628Z,16.02
2019-03-06T11:31:07.853Z,16.20
2019-03-06T11:33:36.921Z,20.00
2019-03-06T11:36:05.017Z,18.52
2019-03-06T11:38:33.659Z,14.78
2019-03-06T11:41:02.554Z,14.85
2019-03-06T11:43:30.445Z,14.87
2019-03-06T11:45:58.460Z,14.63
2019-03-06T11:48:48.749Z,17.23
2019-03-06T11:51:41.547Z,14.80
2019-03-06T12:05:53.363Z,16.65
2019-03-06T12:08:45.553Z,15.63
2019-03-06T12:11:10.067Z,14.53
2019-03-06T12:19:08.407Z,15.65
2019-03-06T12:21:36.428Z,15.00
2019-03-06T12:24:04.482Z,15.70
2019-03-06T12:26:46.377Z,15.55
2019-03-06T12:29:02.095Z,14.80
2019-03-06T12:31:30.106Z,15.13
2019-03-06T12:33:58.108Z,14.60
2019-03-06T12:36:26.030Z,14.90
2019-03-06T12:41:44.490Z,15.70
2019-03-06T12:44:31.400Z,16.75
2019-03-06T12:46:59.771Z,17.35
2019-03-06T12:49:46.855Z,15.75
2019-03-06T12:52:19.143Z,15.23
2019-03-06T12:54:49.356Z,17.15
2019-03-06T12:57:17.202Z,14.03
2019-03-06T12:59:46.458Z,15.43
2019-03-06T13:02:14.753Z,15.00
2019-03-06T13:04:42.691Z,15.18
2019-03-06T13:07:10.594Z,15.05
2019-03-06T13:09:38.525Z,15.95
2019-03-06T13:12:06.669Z,15.75
2019-03-06T13:14:41.858Z,16.10
2019-03-06T13:17:09.842Z,17.52
2019-03-06T13:19:37.652Z,16.37
2019-03-06T13:22:11.329Z,14.70
2019-03-06T13:24:35.243Z,14.85
2019-03-06T13:27:03.123Z,15.43
2019-03-06T13:29:30.943Z,16.20
2019-03-06T13:31:58.756Z,15.00
2019-03-06T13:34:50.692Z,17.32
2019-03-06T13:37:15.331Z,15.28
2019-03-06T13:39:55.525Z,17.95
2019-03-06T13:42:12.855Z,14.95
2019-03-06T13:44:40.811Z,15.00
2019-03-06T13:47:08.618Z,14.20
2019-03-06T13:49:36.475Z,16.00
2019-03-06T13:52:04.376Z,16.30
2019-03-06T13:54:32.402Z,15.18
2019-03-06T13:57:00.229Z,15.60
2019-03-06T13:59:28.127Z,15.85
2019-03-06T14:01:56.030Z,14.68
2019-03-06T14:04:23.941Z,15.65
2019-03-06T14:06:51.866Z,15.05
2019-03-06T14:09:19.698Z,16.00
2019-03-06T14:11:47.511Z,14.78
2019-03-06T14:14:15.358Z,15.25
2019-03-06T14:16:43.177Z,15.72
2019-03-06T14:19:11.010Z,14.63
2019-03-06T14:21:38.843Z,15.03
2019-03-06T14:24:06.683Z,14.75
2019-03-06T14:26:36.282Z,20.52
2019-03-06T14:29:04.120Z,16.15
2019-03-06T14:31:31.995Z,16.07
2019-03-06T14:33:59.850Z,14.90
2019-03-06T14:36:28.286Z,16.85
2019-03-06T14:38:56.214Z,17.02
2019-03-06T14:41:24.179Z,15.18
2019-03-06T14:43:52.233Z,14.30
2019-03-06T14:46:20.173Z,14.63
2019-03-06T14:48:48.072Z,14.60
2019-03-06T14:51:15.929Z,15.25
2019-03-06T14:53:43.858Z,15.20
2019-03-06T14:56:11.800Z,18.17
2019-03-06T14:58:39.608Z,15.05
2019-03-06T15:01:07.433Z,15.45
2019-03-06T15:03:35.294Z,15.50
2019-03-06T15:08:38.015Z,15.05
2019-03-06T15:11:05.978Z,16.97
2019-03-06T15:13:33.935Z,14.68
2019-03-06T15:16:01.823Z,15.03
2019-03-06T15:18:29.630Z,16.35
2019-03-06T15:20:57.611Z,14.43
2019-03-06T15:23:25.453Z,14.50
2019-03-06T15:25:53.355Z,15.28
2019-03-06T15:28:21.160Z,14.10
2019-03-06T15:30:49.102Z,14.47
2019-03-06T15:33:16.963Z,15.35
2019-03-06T15:35:44.829Z,15.98
2019-03-06T15:38:12.678Z,14.38
2019-03-06T15:40:40.837Z,14.93
2019-03-06T15:46:04.223Z,14.05
2019-03-06T15:48:32.119Z,15.10
2019-03-06T15:51:00.345Z,13.85
2019-03-06T15:53:28.300Z,14.30
2019-03-06T15:55:56.434Z,17.20
2019-03-06T15:58:24.274Z,14.30
2019-03-06T16:00:52.105Z,16.07
2019-03-06T16:03:20.026Z,14.63
2019-03-06T16:05:47.890Z,16.97
2019-03-06T16:08:15.826Z,16.07
2019-03-06T16:10:45.553Z,13.95
2019-03-06T16:13:13.397Z,17.10
2019-03-06T16:15:41.330Z,15.40
2019-03-06T16:18:09.390Z,14.30
2019-03-06T16:20:37.337Z,17.15
2019-03-06T16:23:05.238Z,14.00
2019-03-06T16:25:36.864Z,14.25
2019-03-06T16:28:02.775Z,15.20
2019-03-06T16:30:31.265Z,15.60
2019-03-06T16:32:59.193Z,14.80
2019-03-06T16:35:27.065Z,14.18
2019-03-06T16:37:55.034Z,15.32
2019-03-06T16:40:23.020Z,15.45
2019-03-06T16:42:50.959Z,15.60
2019-03-06T16:45:19.298Z,14.85
2019-03-06T16:47:47.198Z,14.60
2019-03-06T16:50:35.790Z,14.20
2019-03-06T16:53:04.189Z,17.85
2019-03-06T16:55:32.078Z,15.60
2019-03-06T16:57:59.914Z,14.40
2019-03-06T17:00:28.468Z,16.05
2019-03-06T17:02:56.672Z,16.97
2019-03-06T17:05:24.611Z,16.60
2019-03-06T17:07:52.887Z,14.60
2019-03-06T17:10:41.498Z,16.30
2019-03-06T17:13:09.426Z,14.70
2019-03-06T17:15:37.274Z,20.80
2019-03-06T17:18:05.266Z,15.23
2019-03-06T17:20:33.383Z,14.00
2019-03-06T17:23:01.185Z,18.15
2019-03-06T17:25:29.034Z,14.60
2019-03-06T17:27:56.873Z,15.32
2019-03-06T17:30:24.826Z,15.58
2019-03-06T17:32:56.729Z,15.50
2019-03-06T17:35:25.080Z,14.75
2019-03-06T17:37:53.006Z,16.35
2019-03-06T17:40:20.854Z,14.75
2019-03-06T17:42:48.760Z,15.00
2019-03-06T17:48:24.113Z,14.60
2019-03-06T17:50:52.015Z,15.15
2019-03-06T17:53:19.957Z,16.00
2019-03-06T17:55:48.045Z,14.60
2019-03-06T17:58:17.900Z,14.50
2019-03-06T18:03:55.970Z,15.40
2019-03-06T18:06:23.907Z,15.08
2019-03-06T18:08:51.858Z,16.93
2019-03-06T18:11:19.774Z,14.05
2019-03-06T18:13:47.786Z,13.40
2019-03-06T18:16:15.618Z,15.18
2019-03-06T18:18:43.748Z,16.17
2019-03-06T18:21:11.914Z,15.58
2019-03-06T18:23:39.897Z,15.00
2019-03-06T18:26:07.914Z,14.85
2019-03-06T18:28:35.886Z,15.03
2019-03-06T18:31:03.991Z,14.70
2019-03-06T18:33:32.005Z,16.12
2019-03-06T18:36:20.438Z,14.05
2019-03-06T18:38:48.404Z,14.20
2019-03-06T18:44:03.478Z,15.53
2019-03-06T18:46:50.533Z,15.10
2019-03-06T18:49:18.499Z,14.00
2019-03-06T18:51:47.051Z,16.80
2019-03-06T18:54:15.566Z,15.35
2019-03-06T18:56:43.506Z,15.80
2019-03-06T18:59:11.435Z,16.25
2019-03-06T19:01:40.656Z,15.50
2019-03-06T19:04:20.511Z,15.63
2019-03-06T19:09:35.650Z,18.42
2019-03-06T19:12:04.652Z,15.30
2019-03-06T19:14:33.227Z,16.52
2019-03-06T19:17:01.216Z,16.85
2019-03-06T19:22:24.481Z,17.52
2019-03-06T19:24:52.456Z,15.70
2019-03-06T19:27:20.424Z,15.63
2019-03-06T19:29:48.304Z,15.70
2019-03-06T19:32:16.360Z,15.68
2019-03-06T19:34:45.491Z,16.05
2019-03-06T19:37:13.516Z,14.85
2019-03-06T19:39:41.886Z,15.95
2019-03-06T19:44:42.936Z,15.05
2019-03-06T19:47:31.374Z,15.20
2019-03-06T19:50:00.388Z,16.20
2019-03-06T19:55:33.134Z,16.07
2019-03-06T19:58:02.423Z,15.55
2019-03-06T20:01:02.305Z,14.95
2019-03-06T20:03:32.327Z,16.30
2019-03-06T20:06:26.771Z,15.25
2019-03-06T20:08:50.232Z,16.75
2019-03-06T20:11:20.253Z,15.10
2019-03-06T20:16:27.518Z,15.68
2019-03-06T20:19:14.490Z,14.03
2019-03-06T20:21:45.743Z,14.25
2019-03-06T20:24:13.763Z,14.15
2019-03-06T20:29:49.523Z,14.05
2019-03-06T20:32:19.868Z,14.10
2019-03-06T20:34:50.075Z,17.17
2019-03-06T20:43:02.628Z,15.75
2019-03-06T20:48:04.116Z,14.70
2019-03-06T20:50:51.051Z,15.13
2019-03-06T20:53:19.207Z,15.32
2019-03-06T20:55:47.301Z,17.05
2019-03-06T20:58:15.422Z,16.60
2019-03-06T21:03:51.122Z,14.93
2019-03-06T21:06:38.174Z,15.30
2019-03-06T21:09:25.576Z,16.55
2019-03-06T21:11:53.561Z,16.50
2019-03-06T21:14:21.570Z,16.27
2019-03-06T21:16:49.513Z,17.40
2019-03-06T21:19:36.766Z,15.05
2019-03-06T21:22:05.530Z,15.75
2019-03-06T21:27:08.438Z,17.23
2019-03-06T21:29:36.418Z,15.90
2019-03-06T21:32:04.295Z,17.77
2019-03-06T21:34:32.596Z,15.55
2019-03-06T21:37:15.065Z,17.95
2019-03-06T21:42:29.300Z,16.70
2019-03-06T21:44:57.283Z,16.73
2019-03-06T21:47:26.881Z,16.95
2019-03-06T21:49:54.836Z,17.35
2019-03-06T21:52:23.203Z,20.95
2019-03-06T21:54:51.151Z,17.57
2019-03-06T21:57:19.135Z,18.35
2019-03-06T21:59:49.329Z,16.85
2019-03-06T22:02:17.293Z,18.02
2019-03-06T22:04:46.215Z,18.12
2019-03-06T22:07:16.935Z,18.40
2019-03-06T22:09:46.890Z,18.70
2019-03-06T22:12:14.858Z,16.50
2019-03-06T22:15:05.701Z,18.95
2019-03-06T22:17:33.535Z,17.87
2019-03-06T22:20:01.902Z,18.27
2019-03-06T22:22:30.908Z,18.40
2019-03-06T22:24:58.860Z,17.65
2019-03-06T22:27:27.230Z,16.27
2019-03-06T22:29:55.162Z,16.20
2019-03-06T22:32:23.084Z,17.75
2019-03-06T22:34:55.055Z,21.55
2019-03-06T22:37:23.031Z,17.15
2019-03-06T22:39:55.377Z,16.97
2019-03-06T22:42:23.113Z,18.92
2019-03-06T22:44:51.259Z,18.70
2019-03-06T22:47:38.237Z,19.25
2019-03-06T22:53:19.538Z,16.70
2019-03-06T22:55:48.190Z,16.10
2019-03-06T22:58:16.139Z,20.15
2019-03-06T23:04:12.614Z,18.95
2019-03-06T23:06:40.531Z,17.30
2019-03-06T23:09:30.330Z,18.70
2019-03-06T23:14:51.252Z,16.57
2019-03-06T23:17:19.128Z,17.87
2019-03-06T23:19:47.091Z,16.02
2019-03-06T23:25:22.093Z,18.07
2019-03-06T23:27:50.206Z,15.40
2019-03-06T23:30:18.340Z,17.35
2019-03-06T23:32:46.367Z,17.35
2019-03-06T23:38:08.770Z,16.60
2019-03-06T23:40:55.633Z,16.50
2019-03-06T23:43:23.666Z,17.30
2019-03-06T23:45:51.758Z,16.82
2019-03-06T23:48:22.036Z,17.57
2019-03-06T23:54:03.206Z,20.52
2019-03-06T23:56:31.597Z,15.30
2019-03-06T23:58:59.784Z,16.67
